sensor_id;sensor_type;location;lat;lon;timestamp;pressure;altitude;pressure_sealevel;temperature;humidity
58245;BME280;44550;43.864;25.986;2023-03-03T00:00:40;101543.56;;;4.40;100.00
58245;BME280;44550;43.864;25.986;2023-03-03T00:04:53;101540.28;;;4.44;100.00
58245;BME280;44550;43.864;25.986;2023-03-03T00:09:06;101540.47;;;4.49;100.00
58245;BME280;44550;43.864;25.986;2023-03-03T00:13:38;101531.69;;;4.45;100.00
58245;BME280;44550;43.864;25.986;2023-03-03T00:17:44;101525.44;;;4.40;100.00
58245;BME280;44550;43.864;25.986;2023-03-03T00:21:47;101524.00;;;4.47;100.00
58245;BME280;44550;43.864;25.986;2023-03-03T00:26:04;101519.84;;;4.51;100.00
58245;BME280;44550;43.864;25.986;2023-03-03T00:30:30;101517.31;;;4.52;100.00
58245;BME280;44550;43.864;25.986;2023-03-03T00:34:36;101514.56;;;4.49;100.00
58245;BME280;44550;43.864;25.986;2023-03-03T00:39:10;101496.72;;;4.55;100.00
58245;BME280;44550;43.864;25.986;2023-03-03T00:43:21;101499.19;;;4.73;100.00
58245;BME280;44550;43.864;25.986;2023-03-03T00:47:23;101502.94;;;4.80;100.00
58245;BME280;44550;43.864;25.986;2023-03-03T00:51:28;101487.34;;;4.99;100.00
58245;BME280;44550;43.864;25.986;2023-03-03T00:55:30;101477.25;;;4.84;100.00
58245;BME280;44550;43.864;25.986;2023-03-03T00:59:34;101480.63;;;4.83;100.00
58245;BME280;44550;43.864;25.986;2023-03-03T01:03:35;101473.94;;;4.88;100.00
58245;BME280;44550;43.864;25.986;2023-03-03T01:07:37;101474.91;;;4.90;100.00
58245;BME280;44550;43.864;25.986;2023-03-03T01:11:41;101466.31;;;4.91;100.00
58245;BME280;44550;43.864;25.986;2023-03-03T01:15:44;101457.06;;;4.77;100.00
58245;BME280;44550;43.864;25.986;2023-03-03T01:19:45;101458.56;;;4.72;100.00
58245;BME280;44550;43.864;25.986;2023-03-03T01:23:46;101457.25;;;4.82;100.00
58245;BME280;44550;43.864;25.986;2023-03-03T01:27:47;101452.00;;;5.01;100.00
58245;BME280;44550;43.864;25.986;2023-03-03T01:31:50;101448.38;;;5.18;100.00
58245;BME280;44550;43.864;25.986;2023-03-03T01:36:01;101444.78;;;5.15;100.00
58245;BME280;44550;43.864;25.986;2023-03-03T01:40:11;101441.78;;;5.04;100.00
58245;BME280;44550;43.864;25.986;2023-03-03T01:44:22;101442.66;;;5.05;100.00
58245;BME280;44550;43.864;25.986;2023-03-03T01:48:37;101440.09;;;5.06;100.00
58245;BME280;44550;43.864;25.986;2023-03-03T01:52:45;101437.34;;;5.02;100.00
58245;BME280;44550;43.864;25.986;2023-03-03T01:56:48;101436.22;;;4.95;100.00
58245;BME280;44550;43.864;25.986;2023-03-03T02:00:49;101442.34;;;4.97;100.00
58245;BME280;44550;43.864;25.986;2023-03-03T02:04:53;101433.25;;;4.86;100.00
58245;BME280;44550;43.864;25.986;2023-03-03T02:08:56;101429.50;;;4.79;100.00
58245;BME280;44550;43.864;25.986;2023-03-03T02:13:02;101426.63;;;4.71;100.00
58245;BME280;44550;43.864;25.986;2023-03-03T02:17:02;101427.63;;;4.75;100.00
58245;BME280;44550;43.864;25.986;2023-03-03T02:21:06;101424.41;;;4.81;100.00
58245;BME280;44550;43.864;25.986;2023-03-03T02:25:13;101418.31;;;4.59;100.00
58245;BME280;44550;43.864;25.986;2023-03-03T02:29:21;101418.19;;;4.56;100.00
58245;BME280;44550;43.864;25.986;2023-03-03T02:33:24;101416.59;;;4.60;100.00
58245;BME280;44550;43.864;25.986;2023-03-03T02:37:25;101412.38;;;4.62;100.00
58245;BME280;44550;43.864;25.986;2023-03-03T02:41:28;101416.81;;;4.64;100.00
58245;BME280;44550;43.864;25.986;2023-03-03T02:45:33;101409.44;;;4.74;100.00
58245;BME280;44550;43.864;25.986;2023-03-03T02:49:35;101416.75;;;4.84;100.00
58245;BME280;44550;43.864;25.986;2023-03-03T02:53:37;101413.34;;;4.85;100.00
58245;BME280;44550;43.864;25.986;2023-03-03T02:57:38;101411.63;;;4.85;100.00
58245;BME280;44550;43.864;25.986;2023-03-03T03:01:45;101409.91;;;4.86;100.00
58245;BME280;44550;43.864;25.986;2023-03-03T03:05:49;101410.91;;;4.89;100.00
58245;BME280;44550;43.864;25.986;2023-03-03T03:10:06;101408.19;;;4.86;100.00
58245;BME280;44550;43.864;25.986;2023-03-03T03:14:08;101405.75;;;4.89;100.00
58245;BME280;44550;43.864;25.986;2023-03-03T03:18:17;101404.34;;;4.77;100.00
58245;BME280;44550;43.864;25.986;2023-03-03T03:22:27;101409.22;;;4.48;100.00
58245;BME280;44550;43.864;25.986;2023-03-03T03:26:31;101403.22;;;4.49;100.00
58245;BME280;44550;43.864;25.986;2023-03-03T03:30:32;101393.88;;;4.53;100.00
58245;BME280;44550;43.864;25.986;2023-03-03T03:34:37;101393.59;;;4.46;100.00
58245;BME280;44550;43.864;25.986;2023-03-03T03:38:39;101390.28;;;4.49;100.00
58245;BME280;44550;43.864;25.986;2023-03-03T03:42:40;101386.97;;;4.53;100.00
58245;BME280;44550;43.864;25.986;2023-03-03T03:46:40;101383.34;;;4.48;100.00
58245;BME280;44550;43.864;25.986;2023-03-03T03:50:50;101380.34;;;4.39;100.00
58245;BME280;44550;43.864;25.986;2023-03-03T03:54:53;101379.59;;;4.41;100.00
58245;BME280;44550;43.864;25.986;2023-03-03T03:58:54;101377.72;;;4.37;100.00
58245;BME280;44550;43.864;25.986;2023-03-03T04:02:54;101366.81;;;4.25;100.00
58245;BME280;44550;43.864;25.986;2023-03-03T04:07:00;101382.38;;;4.25;100.00
58245;BME280;44550;43.864;25.986;2023-03-03T04:11:03;101388.59;;;4.30;100.00
58245;BME280;44550;43.864;25.986;2023-03-03T04:15:09;101381.47;;;4.24;100.00
58245;BME280;44550;43.864;25.986;2023-03-03T04:19:14;101376.44;;;4.28;100.00
58245;BME280;44550;43.864;25.986;2023-03-03T04:23:18;101378.22;;;4.09;100.00
58245;BME280;44550;43.864;25.986;2023-03-03T04:27:18;101377.78;;;4.19;100.00
58245;BME280;44550;43.864;25.986;2023-03-03T04:31:42;101374.50;;;4.23;100.00
58245;BME280;44550;43.864;25.986;2023-03-03T04:35:46;101383.41;;;4.30;100.00
58245;BME280;44550;43.864;25.986;2023-03-03T04:39:52;101383.13;;;4.43;100.00
58245;BME280;44550;43.864;25.986;2023-03-03T04:43:58;101380.31;;;4.58;100.00
58245;BME280;44550;43.864;25.986;2023-03-03T04:47:59;101377.13;;;4.65;100.00
58245;BME280;44550;43.864;25.986;2023-03-03T04:52:02;101376.75;;;4.77;100.00
58245;BME280;44550;43.864;25.986;2023-03-03T04:56:06;101380.22;;;4.78;100.00
58245;BME280;44550;43.864;25.986;2023-03-03T05:00:08;101378.59;;;4.59;100.00
58245;BME280;44550;43.864;25.986;2023-03-03T05:04:09;101381.44;;;4.65;100.00
58245;BME280;44550;43.864;25.986;2023-03-03T05:08:09;101381.19;;;4.59;100.00
58245;BME280;44550;43.864;25.986;2023-03-03T05:12:14;101379.09;;;4.50;100.00
58245;BME280;44550;43.864;25.986;2023-03-03T05:16:18;101381.00;;;4.54;100.00
58245;BME280;44550;43.864;25.986;2023-03-03T05:20:38;101378.28;;;4.51;100.00
58245;BME280;44550;43.864;25.986;2023-03-03T05:24:39;101380.75;;;4.48;100.00
58245;BME280;44550;43.864;25.986;2023-03-03T05:28:48;101367.84;;;4.50;100.00
58245;BME280;44550;43.864;25.986;2023-03-03T05:32:49;101374.38;;;4.61;100.00
58245;BME280;44550;43.864;25.986;2023-03-03T05:36:56;101369.91;;;4.79;100.00
58245;BME280;44550;43.864;25.986;2023-03-03T05:40:59;101375.97;;;5.01;100.00
58245;BME280;44550;43.864;25.986;2023-03-03T05:45:03;101382.16;;;5.04;100.00
58245;BME280;44550;43.864;25.986;2023-03-03T05:49:06;101389.84;;;5.03;100.00
58245;BME280;44550;43.864;25.986;2023-03-03T05:53:07;101388.94;;;5.01;100.00
58245;BME280;44550;43.864;25.986;2023-03-03T05:57:11;101382.91;;;5.02;100.00
58245;BME280;44550;43.864;25.986;2023-03-03T06:01:14;101388.34;;;5.08;100.00
58245;BME280;44550;43.864;25.986;2023-03-03T06:05:16;101389.56;;;4.95;100.00
58245;BME280;44550;43.864;25.986;2023-03-03T06:09:19;101383.38;;;4.91;100.00
58245;BME280;44550;43.864;25.986;2023-03-03T06:13:28;101384.66;;;4.80;100.00
58245;BME280;44550;43.864;25.986;2023-03-03T06:17:37;101384.53;;;4.77;100.00
58245;BME280;44550;43.864;25.986;2023-03-03T06:21:38;101387.56;;;4.67;100.00
58245;BME280;44550;43.864;25.986;2023-03-03T06:25:39;101383.56;;;4.75;100.00
58245;BME280;44550;43.864;25.986;2023-03-03T06:29:43;101387.72;;;4.92;100.00
58245;BME280;44550;43.864;25.986;2023-03-03T06:33:51;101391.94;;;5.11;100.00
58245;BME280;44550;43.864;25.986;2023-03-03T06:37:58;101401.50;;;5.57;100.00
58245;BME280;44550;43.864;25.986;2023-03-03T06:42:02;101394.28;;;6.19;100.00
58245;BME280;44550;43.864;25.986;2023-03-03T06:46:05;101393.94;;;6.61;100.00
58245;BME280;44550;43.864;25.986;2023-03-03T06:50:13;101391.66;;;6.97;100.00
58245;BME280;44550;43.864;25.986;2023-03-03T06:54:31;101395.94;;;7.22;99.27
58245;BME280;44550;43.864;25.986;2023-03-03T06:59:34;101403.94;;;7.28;97.55
58245;BME280;44550;43.864;25.986;2023-03-03T07:04:23;101398.97;;;7.38;97.94
58245;BME280;44550;43.864;25.986;2023-03-03T07:09:04;101402.84;;;7.22;97.71
58245;BME280;44550;43.864;25.986;2023-03-03T07:13:25;101397.84;;;7.01;99.00
58245;BME280;44550;43.864;25.986;2023-03-03T07:17:44;101396.09;;;6.73;100.00
58245;BME280;44550;43.864;25.986;2023-03-03T07:21:50;101389.41;;;6.81;100.00
58245;BME280;44550;43.864;25.986;2023-03-03T07:25:57;101382.84;;;6.92;100.00
58245;BME280;44550;43.864;25.986;2023-03-03T07:30:12;101385.38;;;6.91;100.00
58245;BME280;44550;43.864;25.986;2023-03-03T07:34:29;101379.25;;;7.16;100.00
58245;BME280;44550;43.864;25.986;2023-03-03T07:38:37;101370.63;;;7.18;100.00
58245;BME280;44550;43.864;25.986;2023-03-03T07:42:41;101373.78;;;7.08;100.00
58245;BME280;44550;43.864;25.986;2023-03-03T07:46:44;101372.09;;;7.09;100.00
58245;BME280;44550;43.864;25.986;2023-03-03T07:50:48;101372.72;;;6.74;100.00
58245;BME280;44550;43.864;25.986;2023-03-03T07:54:49;101369.97;;;6.43;100.00
58245;BME280;44550;43.864;25.986;2023-03-03T07:58:57;101368.47;;;6.76;100.00
58245;BME280;44550;43.864;25.986;2023-03-03T08:03:08;101365.09;;;6.79;100.00
58245;BME280;44550;43.864;25.986;2023-03-03T08:07:13;101363.91;;;6.96;100.00
58245;BME280;44550;43.864;25.986;2023-03-03T08:11:16;101359.69;;;7.00;100.00
58245;BME280;44550;43.864;25.986;2023-03-03T08:15:30;101369.81;;;6.65;100.00
58245;BME280;44550;43.864;25.986;2023-03-03T08:19:37;101362.22;;;6.98;100.00
58245;BME280;44550;43.864;25.986;2023-03-03T08:23:39;101359.09;;;6.81;100.00
58245;BME280;44550;43.864;25.986;2023-03-03T08:27:38;101360.31;;;7.21;100.00
58245;BME280;44550;43.864;25.986;2023-03-03T08:31:42;101360.81;;;7.37;100.00
58245;BME280;44550;43.864;25.986;2023-03-03T08:35:49;101358.47;;;7.17;99.84
58245;BME280;44550;43.864;25.986;2023-03-03T08:39:56;101347.75;;;7.35;99.14
58245;BME280;44550;43.864;25.986;2023-03-03T08:43:56;101341.25;;;7.51;99.15
58245;BME280;44550;43.864;25.986;2023-03-03T08:47:59;101339.03;;;7.65;98.54
58245;BME280;44550;43.864;25.986;2023-03-03T08:52:08;101334.19;;;8.09;96.21
58245;BME280;44550;43.864;25.986;2023-03-03T08:56:13;101333.06;;;8.32;94.30
58245;BME280;44550;43.864;25.986;2023-03-03T09:00:17;101330.47;;;7.99;94.39
58245;BME280;44550;43.864;25.986;2023-03-03T09:04:37;101332.19;;;8.32;93.65
58245;BME280;44550;43.864;25.986;2023-03-03T09:14:03;101326.56;;;8.86;90.21
58245;BME280;44550;43.864;25.986;2023-03-03T09:18:24;101324.91;;;8.52;91.90
58245;BME280;44550;43.864;25.986;2023-03-03T09:22:55;101317.25;;;8.58;91.32
58245;BME280;44550;43.864;25.986;2023-03-03T09:26:58;101308.56;;;8.59;90.58
58245;BME280;44550;43.864;25.986;2023-03-03T09:31:20;101318.06;;;8.23;92.97
58245;BME280;44550;43.864;25.986;2023-03-03T09:35:33;101303.44;;;8.29;92.80
58245;BME280;44550;43.864;25.986;2023-03-03T09:39:44;101311.09;;;8.22;92.62
58245;BME280;44550;43.864;25.986;2023-03-03T09:43:50;101312.63;;;8.14;94.33
58245;BME280;44550;43.864;25.986;2023-03-03T09:52:39;101312.25;;;8.00;93.65
58245;BME280;44550;43.864;25.986;2023-03-03T09:56:53;101311.53;;;8.38;94.18
58245;BME280;44550;43.864;25.986;2023-03-03T10:05:36;101302.31;;;8.88;91.90
58245;BME280;44550;43.864;25.986;2023-03-03T10:09:46;101307.56;;;8.54;92.78
58245;BME280;44550;43.864;25.986;2023-03-03T10:18:50;101300.50;;;8.48;92.87
58245;BME280;44550;43.864;25.986;2023-03-03T10:23:19;101298.56;;;8.41;93.47
58245;BME280;44550;43.864;25.986;2023-03-03T10:27:38;101290.56;;;8.69;92.82
58245;BME280;44550;43.864;25.986;2023-03-03T10:31:45;101278.41;;;8.70;93.07
58245;BME280;44550;43.864;25.986;2023-03-03T10:40:19;101260.59;;;8.90;93.09
58245;BME280;44550;43.864;25.986;2023-03-03T10:44:32;101259.72;;;8.89;92.69
58245;BME280;44550;43.864;25.986;2023-03-03T10:48:57;101244.22;;;8.21;95.52
58245;BME280;44550;43.864;25.986;2023-03-03T10:53:06;101239.38;;;8.37;94.80
58245;BME280;44550;43.864;25.986;2023-03-03T10:57:16;101230.53;;;8.66;93.42
58245;BME280;44550;43.864;25.986;2023-03-03T11:01:39;101219.16;;;9.04;92.46
58245;BME280;44550;43.864;25.986;2023-03-03T11:05:45;101207.19;;;9.13;90.86
58245;BME280;44550;43.864;25.986;2023-03-03T11:09:55;101205.69;;;9.25;89.49
58245;BME280;44550;43.864;25.986;2023-03-03T11:14:05;101201.41;;;9.28;88.76
58245;BME280;44550;43.864;25.986;2023-03-03T11:18:14;101196.72;;;9.12;88.86
58245;BME280;44550;43.864;25.986;2023-03-03T11:22:40;101199.34;;;9.12;88.77
58245;BME280;44550;43.864;25.986;2023-03-03T11:27:16;101188.72;;;9.03;89.78
58245;BME280;44550;43.864;25.986;2023-03-03T11:32:15;101186.06;;;8.60;90.33
58245;BME280;44550;43.864;25.986;2023-03-03T11:37:21;101184.06;;;8.88;89.85
58245;BME280;44550;43.864;25.986;2023-03-03T11:42:42;101183.97;;;8.83;90.24
58245;BME280;44550;43.864;25.986;2023-03-03T11:53:25;101175.06;;;9.16;89.73
58245;BME280;44550;43.864;25.986;2023-03-03T11:58:19;101176.84;;;9.18;89.61
58245;BME280;44550;43.864;25.986;2023-03-03T12:02:33;101164.41;;;9.05;88.18
58245;BME280;44550;43.864;25.986;2023-03-03T12:07:19;101168.31;;;8.83;89.67
58245;BME280;44550;43.864;25.986;2023-03-03T12:12:18;101173.06;;;9.48;86.06
58245;BME280;44550;43.864;25.986;2023-03-03T12:16:50;101158.97;;;9.38;86.11
58245;BME280;44550;43.864;25.986;2023-03-03T12:21:59;101166.63;;;9.29;86.46
58245;BME280;44550;43.864;25.986;2023-03-03T12:26:21;101164.38;;;9.48;86.40
58245;BME280;44550;43.864;25.986;2023-03-03T12:35:38;101163.66;;;9.58;86.31
58245;BME280;44550;43.864;25.986;2023-03-03T12:40:15;101165.75;;;9.30;87.14
58245;BME280;44550;43.864;25.986;2023-03-03T12:45:09;101165.94;;;9.39;87.24
58245;BME280;44550;43.864;25.986;2023-03-03T12:59:33;101161.94;;;9.58;86.65
58245;BME280;44550;43.864;25.986;2023-03-03T13:04:39;101159.28;;;9.57;87.30
58245;BME280;44550;43.864;25.986;2023-03-03T13:09:00;101161.75;;;9.48;87.38
58245;BME280;44550;43.864;25.986;2023-03-03T13:13:15;101159.88;;;9.40;87.03
58245;BME280;44550;43.864;25.986;2023-03-03T13:17:44;101163.13;;;9.27;87.70
58245;BME280;44550;43.864;25.986;2023-03-03T13:22:03;101158.09;;;9.38;88.10
58245;BME280;44550;43.864;25.986;2023-03-03T13:26:52;101155.72;;;9.05;88.14
58245;BME280;44550;43.864;25.986;2023-03-03T13:31:37;101159.28;;;8.67;91.45
58245;BME280;44550;43.864;25.986;2023-03-03T13:41:08;101159.06;;;8.99;89.87
58245;BME280;44550;43.864;25.986;2023-03-03T13:45:29;101155.72;;;9.05;89.35
58245;BME280;44550;43.864;25.986;2023-03-03T13:59:35;101148.59;;;8.96;91.20
58245;BME280;44550;43.864;25.986;2023-03-03T14:04:08;101148.03;;;9.11;90.39
58245;BME280;44550;43.864;25.986;2023-03-03T14:13:53;101148.38;;;8.87;91.03
58245;BME280;44550;43.864;25.986;2023-03-03T14:18:25;101142.16;;;8.79;91.74
58245;BME280;44550;43.864;25.986;2023-03-03T14:22:47;101138.75;;;8.81;92.57
58245;BME280;44550;43.864;25.986;2023-03-03T14:27:28;101146.72;;;8.89;92.49
58245;BME280;44550;43.864;25.986;2023-03-03T14:41:57;101138.53;;;9.14;91.26
58245;BME280;44550;43.864;25.986;2023-03-03T14:46:29;101134.31;;;9.23;90.31
58245;BME280;44550;43.864;25.986;2023-03-03T14:51:21;101134.31;;;9.23;90.30
58245;BME280;44550;43.864;25.986;2023-03-03T14:55:45;101133.44;;;9.22;90.94
58245;BME280;44550;43.864;25.986;2023-03-03T15:00:26;101129.06;;;9.21;90.68
58245;BME280;44550;43.864;25.986;2023-03-03T15:04:45;101134.41;;;9.27;90.24
58245;BME280;44550;43.864;25.986;2023-03-03T15:08:57;101129.75;;;9.11;90.40
58245;BME280;44550;43.864;25.986;2023-03-03T15:13:32;101131.13;;;8.93;91.34
58245;BME280;44550;43.864;25.986;2023-03-03T15:18:01;101123.38;;;8.95;91.46
58245;BME280;44550;43.864;25.986;2023-03-03T15:22:13;101127.09;;;9.09;91.13
58245;BME280;44550;43.864;25.986;2023-03-03T15:26:43;101125.28;;;9.05;90.59
58245;BME280;44550;43.864;25.986;2023-03-03T15:31:16;101126.91;;;9.00;91.80
58245;BME280;44550;43.864;25.986;2023-03-03T15:35:41;101132.25;;;9.06;91.94
58245;BME280;44550;43.864;25.986;2023-03-03T15:40:12;101133.38;;;9.17;91.81
58245;BME280;44550;43.864;25.986;2023-03-03T15:45:06;101134.94;;;9.09;90.84
58245;BME280;44550;43.864;25.986;2023-03-03T15:49:38;101138.69;;;8.80;92.34
58245;BME280;44550;43.864;25.986;2023-03-03T15:59:03;101145.56;;;8.76;93.59
58245;BME280;44550;43.864;25.986;2023-03-03T16:03:30;101150.44;;;8.59;95.95
58245;BME280;44550;43.864;25.986;2023-03-03T16:08:00;101157.16;;;8.48;97.99
58245;BME280;44550;43.864;25.986;2023-03-03T16:17:31;101160.31;;;8.35;100.00
58245;BME280;44550;43.864;25.986;2023-03-03T16:34:09;101175.31;;;8.09;100.00
58245;BME280;44550;43.864;25.986;2023-03-03T16:42:20;101182.88;;;7.98;100.00
58245;BME280;44550;43.864;25.986;2023-03-03T16:47:05;101192.84;;;7.81;100.00
58245;BME280;44550;43.864;25.986;2023-03-03T16:51:44;101193.59;;;7.75;100.00
58245;BME280;44550;43.864;25.986;2023-03-03T16:56:06;101193.59;;;7.75;100.00
58245;BME280;44550;43.864;25.986;2023-03-03T17:33:15;101207.19;;;7.32;100.00
58245;BME280;44550;43.864;25.986;2023-03-03T17:38:25;101207.03;;;7.26;100.00
58245;BME280;44550;43.864;25.986;2023-03-03T17:42:46;101210.59;;;7.29;100.00
58245;BME280;44550;43.864;25.986;2023-03-03T17:46:57;101211.72;;;7.39;100.00
58245;BME280;44550;43.864;25.986;2023-03-03T17:51:47;101219.44;;;7.36;100.00
58245;BME280;44550;43.864;25.986;2023-03-03T17:56:02;101225.00;;;7.18;100.00
58245;BME280;44550;43.864;25.986;2023-03-03T18:00:22;101221.06;;;7.33;100.00
58245;BME280;44550;43.864;25.986;2023-03-03T18:04:31;101220.94;;;7.28;100.00
58245;BME280;44550;43.864;25.986;2023-03-03T18:08:57;101226.63;;;7.15;100.00
58245;BME280;44550;43.864;25.986;2023-03-03T18:13:16;101230.34;;;7.23;100.00
58245;BME280;44550;43.864;25.986;2023-03-03T18:17:30;101229.13;;;7.12;100.00
58245;BME280;44550;43.864;25.986;2023-03-03T18:21:37;101227.88;;;6.97;100.00
58245;BME280;44550;43.864;25.986;2023-03-03T18:25:55;101236.44;;;6.95;100.00
58245;BME280;44550;43.864;25.986;2023-03-03T18:30:17;101238.25;;;6.96;100.00
58245;BME280;44550;43.864;25.986;2023-03-03T18:34:46;101242.63;;;6.98;100.00
58245;BME280;44550;43.864;25.986;2023-03-03T18:39:12;101237.56;;;7.03;100.00
58245;BME280;44550;43.864;25.986;2023-03-03T18:48:09;101245.78;;;7.18;100.00
58245;BME280;44550;43.864;25.986;2023-03-03T18:57:15;101252.28;;;7.02;100.00
58245;BME280;44550;43.864;25.986;2023-03-03T19:05:46;101258.88;;;6.91;100.00
58245;BME280;44550;43.864;25.986;2023-03-03T19:09:55;101260.19;;;7.05;100.00
58245;BME280;44550;43.864;25.986;2023-03-03T19:14:14;101271.28;;;7.00;100.00
58245;BME280;44550;43.864;25.986;2023-03-03T19:18:24;101273.78;;;6.97;100.00
58245;BME280;44550;43.864;25.986;2023-03-03T19:22:28;101271.28;;;7.00;100.00
58245;BME280;44550;43.864;25.986;2023-03-03T19:30:52;101261.50;;;7.21;100.00
58245;BME280;44550;43.864;25.986;2023-03-03T19:35:00;101273.03;;;7.01;100.00
58245;BME280;44550;43.864;25.986;2023-03-03T19:43:40;101278.59;;;6.85;100.00
58245;BME280;44550;43.864;25.986;2023-03-03T19:47:43;101282.13;;;6.58;100.00
58245;BME280;44550;43.864;25.986;2023-03-03T19:51:46;101281.44;;;6.37;100.00
58245;BME280;44550;43.864;25.986;2023-03-03T19:56:03;101281.75;;;6.46;100.00
58245;BME280;44550;43.864;25.986;2023-03-03T20:00:14;101281.78;;;6.47;100.00
58245;BME280;44550;43.864;25.986;2023-03-03T20:04:25;101288.69;;;6.47;100.00
58245;BME280;44550;43.864;25.986;2023-03-03T20:08:30;101285.25;;;6.48;100.00
58245;BME280;44550;43.864;25.986;2023-03-03T20:12:39;101284.38;;;6.47;100.00
58245;BME280;44550;43.864;25.986;2023-03-03T20:16:47;101282.66;;;6.48;100.00
58245;BME280;44550;43.864;25.986;2023-03-03T20:20:53;101285.66;;;6.33;100.00
58245;BME280;44550;43.864;25.986;2023-03-03T20:25:05;101283.63;;;6.24;100.00
58245;BME280;44550;43.864;25.986;2023-03-03T20:29:21;101290.19;;;6.13;100.00
58245;BME280;44550;43.864;25.986;2023-03-03T20:33:51;101283.06;;;6.07;100.00
58245;BME280;44550;43.864;25.986;2023-03-03T20:38:02;101279.31;;;5.99;100.00
58245;BME280;44550;43.864;25.986;2023-03-03T20:42:13;101286.50;;;6.06;100.00
58245;BME280;44550;43.864;25.986;2023-03-03T20:46:19;101284.19;;;6.16;100.00
58245;BME280;44550;43.864;25.986;2023-03-03T20:50:26;101284.69;;;6.29;100.00
58245;BME280;44550;43.864;25.986;2023-03-03T20:54:41;101284.91;;;6.10;100.00
58245;BME280;44550;43.864;25.986;2023-03-03T20:58:56;101284.16;;;6.14;100.00
58245;BME280;44550;43.864;25.986;2023-03-03T21:03:07;101277.59;;;6.25;100.00
58245;BME280;44550;43.864;25.986;2023-03-03T21:07:24;101281.13;;;6.02;100.00
58245;BME280;44550;43.864;25.986;2023-03-03T21:11:41;101278.44;;;5.99;100.00
58245;BME280;44550;43.864;25.986;2023-03-03T21:15:52;101273.34;;;6.02;100.00
58245;BME280;44550;43.864;25.986;2023-03-03T21:19:54;101281.31;;;6.06;100.00
58245;BME280;44550;43.864;25.986;2023-03-03T21:24:01;101281.53;;;6.13;100.00
58245;BME280;44550;43.864;25.986;2023-03-03T21:28:14;101282.19;;;6.07;100.00
58245;BME280;44550;43.864;25.986;2023-03-03T21:36:44;101295.50;;;6.16;100.00
58245;BME280;44550;43.864;25.986;2023-03-03T21:45:23;101287.69;;;5.92;100.00
58245;BME280;44550;43.864;25.986;2023-03-03T21:49:25;101296.38;;;5.93;100.00
58245;BME280;44550;43.864;25.986;2023-03-03T21:53:26;101297.34;;;5.95;100.00
58245;BME280;44550;43.864;25.986;2023-03-03T21:57:27;101294.84;;;5.98;100.00
58245;BME280;44550;43.864;25.986;2023-03-03T22:01:30;101295.09;;;6.05;100.00
58245;BME280;44550;43.864;25.986;2023-03-03T22:05:40;101292.78;;;6.13;100.00
58245;BME280;44550;43.864;25.986;2023-03-03T22:09:41;101294.44;;;6.11;100.00
58245;BME280;44550;43.864;25.986;2023-03-03T22:13:42;101296.03;;;6.07;100.00
58245;BME280;44550;43.864;25.986;2023-03-03T22:17:55;101292.72;;;6.11;100.00
58245;BME280;44550;43.864;25.986;2023-03-03T22:22:04;101287.09;;;6.25;100.00
58245;BME280;44550;43.864;25.986;2023-03-03T22:26:09;101279.47;;;6.29;100.00
58245;BME280;44550;43.864;25.986;2023-03-03T22:30:22;101291.97;;;6.16;100.00
58245;BME280;44550;43.864;25.986;2023-03-03T22:34:30;101281.56;;;6.14;100.00
58245;BME280;44550;43.864;25.986;2023-03-03T22:38:32;101285.03;;;6.15;100.00
58245;BME280;44550;43.864;25.986;2023-03-03T22:42:41;101274.44;;;6.08;100.00
58245;BME280;44550;43.864;25.986;2023-03-03T22:46:43;101278.84;;;6.11;100.00
58245;BME280;44550;43.864;25.986;2023-03-03T22:50:46;101282.34;;;6.11;100.00
58245;BME280;44550;43.864;25.986;2023-03-03T22:54:47;101282.19;;;6.07;100.00
58245;BME280;44550;43.864;25.986;2023-03-03T22:58:49;101272.94;;;6.15;100.00
58245;BME280;44550;43.864;25.986;2023-03-03T23:02:51;101274.47;;;6.35;100.00
58245;BME280;44550;43.864;25.986;2023-03-03T23:06:59;101274.56;;;6.39;100.00
58245;BME280;44550;43.864;25.986;2023-03-03T23:11:03;101274.41;;;6.61;100.00
58245;BME280;44550;43.864;25.986;2023-03-03T23:15:04;101273.31;;;6.53;100.00
58245;BME280;44550;43.864;25.986;2023-03-03T23:19:12;101272.34;;;6.49;100.00
58245;BME280;44550;43.864;25.986;2023-03-03T23:23:18;101277.66;;;6.54;100.00
58245;BME280;44550;43.864;25.986;2023-03-03T23:27:22;101277.91;;;6.62;100.00
58245;BME280;44550;43.864;25.986;2023-03-03T23:31:23;101275.81;;;6.78;100.00
58245;BME280;44550;43.864;25.986;2023-03-03T23:35:24;101277.19;;;6.66;100.00
58245;BME280;44550;43.864;25.986;2023-03-03T23:39:29;101282.53;;;6.72;100.00
58245;BME280;44550;43.864;25.986;2023-03-03T23:43:31;101279.69;;;6.63;100.00
58245;BME280;44550;43.864;25.986;2023-03-03T23:47:31;101281.00;;;6.50;100.00
58245;BME280;44550;43.864;25.986;2023-03-03T23:51:32;101280.13;;;6.49;100.00
58245;BME280;44550;43.864;25.986;2023-03-03T23:55:40;101281.91;;;6.52;100.00
58245;BME280;44550;43.864;25.986;2023-03-03T23:59:43;101279.97;;;6.45;100.00
